San Antonio, Colorado
Current Conditions -  °F | °C
As of 2:52 PM on Thursday 23 Oct 2014 (Local Time) from KALS Reporting Station
Clear Clear  
Wind Chill: 65°   Ceiling: Unl
Heat Index: 65°   Visibility: 10mi
Dew Point: 26°   Wind: 3mph
Humidity: 23%   Direction: NA
Pressure: 30.28"   Gusts: NA
Location:  37.1816°N, 106.262°W
Report Text: KALS 232052Z AUTO VRB03KT 10SM CLR 18/M03 A3028 RMK AO2 SLP203 T01831033 56022
Loading
Personal Weather Stations






























Interactive Weather Map
Tropical Storm Tracking
New forecast layout! Learn more

10-Day Weather Forecast

Advertisements
Track Severe Weather on mobile